createdAt,value
2023-01-02T00:00:21.159Z,98318.16
2023-01-02T00:03:08.171Z,98313.97
2023-01-02T00:05:27.769Z,98313.81
2023-01-02T00:10:53.647Z,98294.63
2023-01-02T00:13:07.427Z,98292.03
2023-01-02T00:16:12.333Z,98292.78
2023-01-02T00:18:19.630Z,98285.69
2023-01-02T00:20:29.652Z,98276.09
2023-01-02T00:23:20.855Z,98274.25
2023-01-02T00:28:07.336Z,98278.41
2023-01-02T00:30:47.475Z,98275.00
2023-01-02T00:33:45.283Z,98273.22
2023-01-02T00:39:23.384Z,98268.75
2023-01-02T00:42:37.182Z,98273.13
2023-01-02T00:45:35.386Z,98269.69
2023-01-02T00:45:42.209Z,98278.22
2023-01-02T00:47:48.289Z,98272.19
2023-01-02T00:50:15.559Z,98274.59
2023-01-02T00:53:06.846Z,98271.06
2023-01-02T00:55:32.355Z,98268.47
2023-01-02T00:57:53.273Z,98268.38
2023-01-02T01:00:03.378Z,98274.31
2023-01-02T01:10:26.977Z,98274.56
2023-01-02T01:12:43.440Z,98285.72
2023-01-02T01:15:41.069Z,98278.75
2023-01-02T01:18:41.074Z,98278.66
2023-01-02T01:21:28.495Z,98289.81
2023-01-02T01:23:56.944Z,98287.09
2023-01-02T01:26:04.996Z,98286.16
2023-01-02T01:28:07.997Z,98286.28
2023-01-02T01:30:12.077Z,98287.81
2023-01-02T01:32:15.295Z,98285.03
2023-01-02T01:34:18.253Z,98289.31
2023-01-02T01:36:22.727Z,98289.22
2023-01-02T01:38:25.799Z,98288.28
2023-01-02T01:40:28.775Z,98286.50
2023-01-02T01:42:34.695Z,98286.41
2023-01-02T01:44:47.272Z,98294.84
2023-01-02T01:46:50.522Z,98279.13
2023-01-02T01:48:58.851Z,98281.53
2023-01-02T01:51:03.387Z,98277.25
2023-01-02T01:53:10.177Z,98283.31
2023-01-02T01:55:16.945Z,98282.38
2023-01-02T01:57:27.733Z,98285.00
2023-01-02T01:59:32.592Z,98281.53
2023-01-02T02:01:35.768Z,98284.03
2023-01-02T02:03:43.722Z,98290.94
2023-01-02T02:05:47.776Z,98290.06
2023-01-02T02:07:58.469Z,98286.53
2023-01-02T02:10:05.925Z,98294.47
2023-01-02T02:12:09.426Z,98293.75
2023-01-02T02:14:12.551Z,98292.91
2023-01-02T02:16:26.594Z,98290.31
2023-01-02T02:18:46.063Z,98287.22
2023-01-02T02:20:52.695Z,98288.19
2023-01-02T02:23:29.123Z,98289.00
2023-01-02T02:25:46.372Z,98273.38
2023-01-02T02:28:03.958Z,98277.09
2023-01-02T02:30:13.901Z,98258.22
2023-01-02T02:32:22.333Z,98266.03
2023-01-02T02:34:29.508Z,98257.31
2023-01-02T02:36:36.283Z,98254.59
2023-01-02T02:38:49.145Z,98255.31
2023-01-02T02:40:58.713Z,98249.09
2023-01-02T02:43:08.565Z,98246.47
2023-01-02T02:45:17.899Z,98237.91
2023-01-02T02:47:23.059Z,98238.66
2023-01-02T02:49:34.010Z,98236.88
2023-01-02T02:51:40.427Z,98229.25
2023-01-02T02:53:45.190Z,98225.81
2023-01-02T02:55:50.302Z,98226.75
2023-01-02T02:57:54.485Z,98228.63
2023-01-02T02:59:57.860Z,98235.50
2023-01-02T03:02:03.502Z,98231.22
2023-01-02T03:04:15.431Z,98229.66
2023-01-02T03:06:30.266Z,98228.81
2023-01-02T03:08:38.100Z,98232.44
2023-01-02T03:10:47.573Z,98232.44
2023-01-02T03:12:56.054Z,98233.47
2023-01-02T03:15:06.739Z,98235.25
2023-01-02T03:17:23.845Z,98224.94
2023-01-02T03:19:31.491Z,98224.09
2023-01-02T03:21:36.893Z,98232.03
2023-01-02T03:23:43.392Z,98228.66
2023-01-02T03:25:47.288Z,98229.53
2023-01-02T03:27:52.090Z,98230.53
2023-01-02T03:29:58.085Z,98233.16
2023-01-02T03:32:02.091Z,98239.28
2023-01-02T03:34:10.222Z,98240.25
2023-01-02T03:36:17.555Z,98242.84
2023-01-02T03:38:23.458Z,98242.09
2023-01-02T03:40:28.627Z,98236.97
2023-01-02T03:42:34.294Z,98243.97
2023-01-02T03:44:41.527Z,98239.81
2023-01-02T03:46:47.873Z,98226.88
2023-01-02T03:48:53.241Z,98230.31
2023-01-02T03:51:00.287Z,98239.03
2023-01-02T03:53:03.466Z,98242.59
2023-01-02T03:55:07.529Z,98235.63
2023-01-02T03:57:17.073Z,98240.81
2023-01-02T03:59:27.386Z,98232.38
2023-01-02T04:01:35.863Z,98235.81
2023-01-02T04:03:42.099Z,98238.50
2023-01-02T04:05:48.854Z,98234.41
2023-01-02T04:07:59.258Z,98238.81
2023-01-02T04:10:02.624Z,98238.81
2023-01-02T04:12:08.462Z,98248.41
2023-01-02T04:14:15.273Z,98238.19
2023-01-02T04:16:21.781Z,98237.31
2023-01-02T04:18:26.864Z,98229.69
2023-01-02T04:20:32.356Z,98231.53
2023-01-02T04:22:38.009Z,98241.88
2023-01-02T04:24:45.028Z,98240.00
2023-01-02T04:26:51.052Z,98242.63
2023-01-02T04:28:54.146Z,98241.78
2023-01-02T04:31:01.684Z,98233.97
2023-01-02T04:33:07.769Z,98235.66
2023-01-02T04:35:13.072Z,98233.16
2023-01-02T04:37:31.866Z,98230.63
2023-01-02T04:39:35.639Z,98223.72
2023-01-02T04:41:40.248Z,98220.19
2023-01-02T04:43:43.320Z,98230.72
2023-01-02T04:45:48.005Z,98229.84
2023-01-02T04:47:51.406Z,98210.78
2023-01-02T04:49:54.385Z,98227.25
2023-01-02T04:51:57.371Z,98216.84
2023-01-02T04:54:00.420Z,98218.72
2023-01-02T04:56:04.900Z,98216.19
2023-01-02T04:58:09.374Z,98215.38
2023-01-02T05:00:13.174Z,98215.38
2023-01-02T05:02:18.983Z,98216.19
2023-01-02T05:04:22.229Z,98215.38
2023-01-02T05:06:25.224Z,98216.19
2023-01-02T05:08:29.709Z,98219.63
2023-01-02T05:10:34.007Z,98208.38
2023-01-02T05:12:37.822Z,98222.44
2023-01-02T05:14:42.221Z,98223.47
2023-01-02T05:16:45.234Z,98225.22
2023-01-02T05:18:48.261Z,98230.63
2023-01-02T05:20:51.236Z,98222.91
2023-01-02T05:23:11.861Z,98224.69
2023-01-02T05:25:14.964Z,98223.97
2023-01-02T05:27:17.953Z,98226.56
2023-01-02T05:29:20.987Z,98229.91
2023-01-02T05:31:25.377Z,98223.22
2023-01-02T05:33:28.436Z,98233.84
2023-01-02T05:35:33.202Z,98222.56
2023-01-02T05:37:36.449Z,98229.47
2023-01-02T05:39:39.489Z,98230.56
2023-01-02T05:41:43.051Z,98224.63
2023-01-02T05:43:46.098Z,98232.34
2023-01-02T05:45:49.298Z,98237.56
2023-01-02T05:47:53.684Z,98244.44
2023-01-02T05:49:56.642Z,98247.97
2023-01-02T05:51:59.999Z,98233.38
2023-01-02T05:54:03.153Z,98231.53
2023-01-02T05:56:08.208Z,98244.44
2023-01-02T05:58:11.238Z,98232.53
2023-01-02T06:00:15.414Z,98241.47
2023-01-02T06:02:18.641Z,98243.97
2023-01-02T06:04:23.540Z,98241.25
2023-01-02T06:06:30.595Z,98244.06
2023-01-02T06:08:33.718Z,98238.13
2023-01-02T06:10:36.712Z,98241.66
2023-01-02T06:12:39.708Z,98247.81
2023-01-02T06:14:42.684Z,98248.53
2023-01-02T06:16:45.761Z,98264.16
2023-01-02T06:18:48.816Z,98255.44
2023-01-02T06:20:53.339Z,98258.94
2023-01-02T06:22:56.877Z,98264.16
2023-01-02T06:24:59.828Z,98261.47
2023-01-02T06:27:02.811Z,98255.63
2023-01-02T06:29:05.927Z,98269.28
2023-01-02T06:31:10.147Z,98269.19
2023-01-02T06:33:13.801Z,98264.88
2023-01-02T06:35:17.048Z,98259.69
2023-01-02T06:37:21.456Z,98263.78
2023-01-02T06:39:26.221Z,98260.25
2023-01-02T06:41:29.450Z,98274.19
2023-01-02T06:43:32.879Z,98282.84
2023-01-02T06:45:35.810Z,98285.63
2023-01-02T06:47:39.127Z,98278.28
2023-01-02T06:49:42.045Z,98282.84
2023-01-02T06:51:45.072Z,98272.53
2023-01-02T06:53:50.127Z,98278.66
2023-01-02T06:55:53.987Z,98285.53
2023-01-02T06:57:57.249Z,98283.84
2023-01-02T07:00:00.359Z,98280.53
2023-01-02T07:02:03.493Z,98282.47
2023-01-02T07:04:06.774Z,98286.75
2023-01-02T07:06:11.888Z,98289.44
2023-01-02T07:08:15.174Z,98282.56
2023-01-02T07:10:19.929Z,98283.50
2023-01-02T07:12:23.156Z,98281.06
2023-01-02T07:14:26.511Z,98282.13
2023-01-02T07:16:29.560Z,98291.13
2023-01-02T07:18:33.926Z,98297.06
2023-01-02T07:20:36.975Z,98299.75
2023-01-02T07:22:42.615Z,98301.53
2023-01-02T07:24:45.838Z,98311.03
2023-01-02T07:26:50.472Z,98310.16
2023-01-02T07:28:53.489Z,98317.88
2023-01-02T07:30:58.344Z,98316.41
2023-01-02T07:33:01.969Z,98320.94
2023-01-02T07:35:06.087Z,98325.22
2023-01-02T07:37:09.239Z,98326.06
2023-01-02T07:39:12.389Z,98325.03
2023-01-02T07:41:16.817Z,98328.28
2023-01-02T07:43:22.318Z,98331.66
2023-01-02T07:45:25.525Z,98335.00
2023-01-02T07:47:29.013Z,98337.59
2023-01-02T07:49:32.142Z,98339.38
2023-01-02T07:51:35.881Z,98342.81
2023-01-02T07:53:39.694Z,98339.16
2023-01-02T07:55:43.625Z,98341.03
2023-01-02T07:57:47.838Z,98343.53
2023-01-02T07:59:52.319Z,98331.47
2023-01-02T08:01:55.473Z,98338.97
2023-01-02T08:03:58.868Z,98339.84
2023-01-02T08:06:05.790Z,98339.84
2023-01-02T08:08:09.594Z,98342.34
2023-01-02T08:10:13.114Z,98350.91
2023-01-02T08:12:16.250Z,98352.50
2023-01-02T08:14:23.367Z,98360.31
2023-01-02T08:16:28.326Z,98355.00
2023-01-02T08:18:31.437Z,98357.50
2023-01-02T08:20:34.554Z,98360.13
2023-01-02T08:22:37.647Z,98355.75
2023-01-02T08:24:40.757Z,98363.47
2023-01-02T08:26:43.705Z,98354.72
2023-01-02T08:28:47.087Z,98354.72
2023-01-02T08:30:50.472Z,98367.47
2023-01-02T08:32:54.877Z,98360.31
2023-01-02T08:34:58.329Z,98361.91
2023-01-02T08:37:01.319Z,98366.06
2023-01-02T08:39:04.829Z,98370.25
2023-01-02T08:41:08.215Z,98374.38
2023-01-02T08:43:11.365Z,98369.78
2023-01-02T08:45:14.358Z,98377.44
2023-01-02T08:47:17.711Z,98385.16
2023-01-02T08:49:22.499Z,98388.41
2023-01-02T08:51:25.790Z,98386.63
2023-01-02T08:53:30.920Z,98379.56
2023-01-02T08:55:33.890Z,98383.72
2023-01-02T08:57:36.919Z,98375.00
2023-01-02T08:59:39.986Z,98385.31
2023-01-02T09:01:43.838Z,98383.41
2023-01-02T09:03:47.078Z,98393.34
2023-01-02T09:05:51.485Z,98391.22
2023-01-02T09:07:54.824Z,98390.53
2023-01-02T09:09:57.863Z,98390.91
2023-01-02T09:12:01.231Z,98383.66
2023-01-02T09:14:06.020Z,98393.06
2023-01-02T09:16:10.551Z,98401.41
2023-01-02T09:18:13.779Z,98393.41
2023-01-02T09:20:16.989Z,98399.91
2023-01-02T09:22:22.005Z,98397.00
2023-01-02T09:24:25.239Z,98407.69
2023-01-02T09:26:28.611Z,98401.91
2023-01-02T09:28:34.136Z,98402.63
2023-01-02T09:30:37.646Z,98409.53
2023-01-02T09:32:40.932Z,98416.19
2023-01-02T09:34:50.414Z,98413.50
2023-01-02T09:36:53.909Z,98416.28
2023-01-02T09:39:00.792Z,98431.69
2023-01-02T09:41:11.069Z,98420.88
2023-01-02T09:43:14.813Z,98421.38
2023-01-02T09:45:18.189Z,98424.13
2023-01-02T09:47:22.948Z,98430.44
2023-01-02T09:49:29.217Z,98434.88
2023-01-02T09:51:33.458Z,98443.75
2023-01-02T09:53:37.102Z,98445.63
2023-01-02T09:55:46.552Z,98431.31
2023-01-02T09:57:54.109Z,98434.97
2023-01-02T10:00:01.082Z,98436.00
2023-01-02T10:02:15.771Z,98435.78
2023-01-02T10:04:25.578Z,98452.03
2023-01-02T10:06:34.793Z,98444.91
2023-01-02T10:08:47.761Z,98447.81
2023-01-02T10:10:56.551Z,98456.72
2023-01-02T10:13:04.204Z,98452.66
2023-01-02T10:15:12.307Z,98463.53
2023-01-02T10:17:17.536Z,98464.97
2023-01-02T10:19:23.921Z,98479.94
2023-01-02T10:21:28.771Z,98471.69
2023-01-02T10:23:37.643Z,98479.41
2023-01-02T10:25:49.419Z,98483.09
2023-01-02T10:28:00.923Z,98490.72
2023-01-02T10:30:08.099Z,98496.75
2023-01-02T10:32:15.405Z,98486.28
2023-01-02T10:34:21.170Z,98482.16
2023-01-02T10:36:26.959Z,98485.50
2023-01-02T10:38:35.966Z,98491.50
2023-01-02T10:40:39.994Z,98481.13
2023-01-02T10:42:45.642Z,98485.66
2023-01-02T10:44:52.002Z,98487.63
2023-01-02T10:46:56.325Z,98490.53
2023-01-02T10:49:00.241Z,98500.13
2023-01-02T10:51:05.106Z,98483.69
2023-01-02T10:53:09.880Z,98476.94
2023-01-02T10:55:14.843Z,98479.91
2023-01-02T10:57:24.347Z,98483.41
2023-01-02T10:59:42.703Z,98490.47
2023-01-02T11:02:26.966Z,98493.75
2023-01-02T11:05:24.463Z,98488.41
2023-01-02T11:07:34.182Z,98482.56
2023-01-02T11:09:38.036Z,98483.91
2023-01-02T11:11:50.225Z,98485.81
2023-01-02T11:13:55.912Z,98491.28
2023-01-02T11:16:02.073Z,98491.38
2023-01-02T11:18:12.963Z,98504.38
2023-01-02T11:20:27.794Z,98490.03
2023-01-02T11:22:36.170Z,98483.22
2023-01-02T11:24:59.615Z,98484.53
2023-01-02T11:27:04.106Z,98480.22
2023-01-02T11:29:09.153Z,98479.72
2023-01-02T11:31:14.517Z,98485.88
2023-01-02T11:33:21.944Z,98482.63
2023-01-02T11:35:39.007Z,98474.94
2023-01-02T11:37:49.441Z,98480.56
2023-01-02T11:40:01.145Z,98476.69
2023-01-02T11:42:34.941Z,98478.00
2023-01-02T11:44:44.483Z,98483.81
2023-01-02T11:46:48.178Z,98481.81
2023-01-02T11:48:53.554Z,98487.63
2023-01-02T11:50:58.707Z,98481.03
2023-01-02T11:53:04.458Z,98480.06
2023-01-02T11:55:17.279Z,98481.59
2023-01-02T11:57:30.335Z,98490.97
2023-01-02T11:59:39.117Z,98489.88
2023-01-02T12:01:51.546Z,98489.72
2023-01-02T12:03:55.325Z,98479.59
2023-01-02T12:06:16.834Z,98499.56
2023-01-02T12:08:43.302Z,98490.84
2023-01-02T12:10:59.541Z,98488.34
2023-01-02T12:13:13.176Z,98492.88
2023-01-02T12:15:30.704Z,98487.75
2023-01-02T12:17:41.849Z,98495.38
2023-01-02T17:22:44.587Z,98736.34
2023-01-02T17:24:47.914Z,98739.91
2023-01-02T17:26:51.691Z,98744.31
2023-01-02T17:28:54.813Z,98745.06
2023-01-02T17:30:57.912Z,98737.91
2023-01-02T17:33:04.192Z,98757.31
2023-01-02T17:35:08.225Z,98753.84
2023-01-02T17:37:11.629Z,98763.31
2023-01-02T17:39:16.118Z,98777.25
2023-01-02T17:41:19.237Z,98785.84
2023-01-02T17:43:22.459Z,98797.91
2023-01-02T17:45:25.765Z,98789.09
2023-01-02T17:47:59.346Z,98783.00
2023-01-02T17:49:55.216Z,98791.94
2023-01-02T17:51:59.501Z,98799.59
2023-01-02T17:54:03.368Z,98800.63
2023-01-02T17:56:21.606Z,98804.94
2023-01-02T17:58:27.222Z,98801.28
2023-01-02T18:00:30.465Z,98796.03
2023-01-02T18:02:33.989Z,98804.00
2023-01-02T18:04:39.544Z,98803.06
2023-01-02T18:06:43.487Z,98822.25
2023-01-02T18:08:47.343Z,98814.59
2023-01-02T18:10:51.884Z,98822.97
2023-01-02T18:12:56.842Z,98822.47
2023-01-02T18:15:03.740Z,98830.34
2023-01-02T18:17:15.464Z,98837.59
2023-01-02T18:19:22.290Z,98840.63
2023-01-02T18:21:30.912Z,98841.88
2023-01-02T18:23:34.686Z,98851.84
2023-01-02T18:25:38.623Z,98857.31
2023-01-02T18:27:41.818Z,98855.59
2023-01-02T18:29:48.232Z,98851.34
2023-01-02T18:31:52.099Z,98859.50
2023-01-02T18:33:56.693Z,98855.59
2023-01-02T18:36:04.034Z,98860.34
2023-01-02T18:38:17.319Z,98867.34
2023-01-02T18:40:27.810Z,98874.66
2023-01-02T18:42:34.727Z,98881.91
2023-01-02T18:44:40.051Z,98874.25
2023-01-02T18:47:01.944Z,98885.03
2023-01-02T18:49:15.297Z,98887.97
2023-01-02T18:51:20.727Z,98901.25
2023-01-02T18:53:26.098Z,98913.63
2023-01-02T18:55:38.322Z,98919.69
2023-01-02T18:57:46.530Z,98921.78
2023-01-02T18:59:51.079Z,98935.59
2023-01-02T19:01:57.980Z,98930.03
2023-01-02T19:04:26.198Z,98946.69
2023-01-02T19:06:31.122Z,98932.09
2023-01-02T19:08:37.165Z,98936.78
2023-01-02T19:10:43.099Z,98937.09
2023-01-02T19:13:07.881Z,98937.56
2023-01-02T19:15:45.016Z,98950.72
2023-01-02T19:17:49.971Z,98936.47
2023-01-02T19:19:56.033Z,98934.31
2023-01-02T19:21:59.982Z,98945.72
2023-01-02T19:24:11.418Z,98945.81
2023-01-02T19:26:21.139Z,98951.88
2023-01-02T19:28:28.621Z,98955.47
2023-01-02T19:30:35.845Z,98950.50
2023-01-02T19:32:39.392Z,98947.22
2023-01-02T19:34:46.514Z,98946.47
2023-01-02T19:36:52.583Z,98952.66
2023-01-02T19:38:59.409Z,98955.34
2023-01-02T19:41:03.883Z,98961.75
2023-01-02T19:43:07.211Z,98979.97
2023-01-02T19:45:16.408Z,98982.47
2023-01-02T19:47:20.735Z,98982.66
2023-01-02T19:49:24.240Z,98985.38
2023-01-02T19:51:32.297Z,99001.91
2023-01-02T19:53:35.663Z,98998.66
2023-01-02T19:55:39.026Z,99002.09
2023-01-02T19:57:42.351Z,99011.00
2023-01-02T19:59:46.811Z,99010.31
2023-01-02T20:01:50.274Z,99011.19
2023-01-02T20:03:53.787Z,99007.78
2023-01-02T20:05:58.106Z,99018.34
2023-01-02T20:08:03.392Z,99015.81
2023-01-02T20:10:10.087Z,99014.16
2023-01-02T20:12:34.619Z,99025.72
2023-01-02T20:14:38.293Z,99019.75
2023-01-02T20:16:43.082Z,99026.94
2023-01-02T20:18:46.418Z,99019.84
2023-01-02T20:20:49.707Z,99018.34
2023-01-02T20:22:54.887Z,99014.22
2023-01-02T20:25:00.710Z,99021.22
2023-01-02T20:27:04.805Z,99026.56
2023-01-02T20:29:10.944Z,99031.59
2023-01-02T20:31:15.330Z,99023.94
2023-01-02T20:33:18.885Z,99033.47
2023-01-02T20:35:22.607Z,99028.34
2023-01-02T20:37:26.087Z,99041.50
2023-01-02T20:39:29.594Z,99041.50
2023-01-02T20:41:34.479Z,99048.56
2023-01-02T20:43:38.086Z,99056.34
2023-01-02T20:45:41.435Z,99054.94
2023-01-02T20:47:46.442Z,99055.84
2023-01-02T20:49:50.443Z,99047.44
2023-01-02T20:51:56.107Z,99053.34
2023-01-02T20:54:00.521Z,99052.50
2023-01-02T20:56:05.025Z,99057.72
2023-01-02T20:58:10.110Z,99065.84
2023-01-02T21:00:15.261Z,99058.81
2023-01-02T21:02:20.739Z,99058.81
2023-01-02T21:04:29.235Z,99058.00
2023-01-02T21:06:38.015Z,99067.63
2023-01-02T21:08:42.385Z,99071.16
2023-01-02T21:10:46.098Z,99066.84
2023-01-02T21:13:07.153Z,99086.09
2023-01-02T21:15:33.165Z,99092.16
2023-01-02T21:17:37.658Z,99084.22
2023-01-02T21:19:41.573Z,99078.34
2023-01-02T21:21:44.961Z,99085.31
2023-01-02T21:23:50.503Z,99087.19
2023-01-02T21:25:54.372Z,99087.28
2023-01-02T21:27:58.762Z,99094.31
2023-01-02T21:30:02.093Z,99096.06
2023-01-02T21:32:07.692Z,99090.00
2023-01-02T21:34:11.837Z,99109.13
2023-01-02T21:36:16.190Z,99109.22
2023-01-02T21:38:21.331Z,99121.44
2023-01-02T21:40:25.364Z,99120.78
2023-01-02T21:42:27.985Z,99120.00
2023-01-02T21:44:31.356Z,99121.03
2023-01-02T21:46:35.175Z,99111.44
2023-01-02T21:48:41.848Z,99120.00
2023-01-02T21:50:45.341Z,99122.72
2023-01-02T21:52:48.677Z,99121.88
2023-01-02T21:54:53.125Z,99123.75
2023-01-02T21:56:57.692Z,99132.41
2023-01-02T21:59:00.881Z,99139.59
2023-01-02T22:01:04.489Z,99126.63
2023-01-02T22:03:08.923Z,99133.59
2023-01-02T22:05:15.617Z,99138.00
2023-01-02T22:07:31.605Z,99138.06
2023-01-02T22:09:35.695Z,99139.94
2023-01-02T22:11:57.771Z,99144.41
2023-01-02T22:14:01.057Z,99138.34
2023-01-02T22:16:04.543Z,99132.84
2023-01-02T22:18:08.163Z,99136.75
2023-01-02T22:20:13.853Z,99136.84
2023-01-02T22:22:18.497Z,99149.03
2023-01-02T22:24:23.444Z,99143.91
2023-01-02T22:26:26.968Z,99156.13
2023-01-02T22:28:31.633Z,99139.88
2023-01-02T22:30:35.427Z,99148.38
2023-01-02T22:32:39.140Z,99149.47
2023-01-02T22:34:44.725Z,99165.91
2023-01-02T22:36:49.787Z,99165.06
2023-01-02T22:39:25.952Z,99165.22
2023-01-02T22:41:16.869Z,99178.28
2023-01-02T22:43:24.390Z,99172.13
2023-01-02T22:45:29.725Z,99169.53
2023-01-02T22:47:34.680Z,99175.84
2023-01-02T22:49:39.809Z,99178.00
2023-01-02T22:52:06.011Z,99184.22
2023-01-02T22:54:11.337Z,99177.41
2023-01-02T22:56:16.985Z,99188.53
2023-01-02T22:58:20.486Z,99190.38
2023-01-02T23:00:24.490Z,99194.84
2023-01-02T23:02:27.794Z,99195.88
2023-01-02T23:04:31.342Z,99207.97
2023-01-02T23:06:41.404Z,99210.50
2023-01-02T23:08:54.770Z,99208.22
2023-01-02T23:10:59.484Z,99217.84
2023-01-02T23:13:02.728Z,99222.06
2023-01-02T23:15:07.213Z,99216.75
2023-01-02T23:17:29.466Z,99206.31
2023-01-02T23:19:31.655Z,99180.94
2023-01-02T23:21:36.752Z,99166.09
2023-01-02T23:23:39.948Z,99172.19
2023-01-02T23:25:44.392Z,99166.09
2023-01-02T23:27:49.565Z,99167.38
2023-01-02T23:29:53.106Z,99184.03
2023-01-02T23:31:56.691Z,99201.41
2023-01-02T23:33:59.945Z,99199.56
2023-01-02T23:36:03.092Z,99197.78
2023-01-02T23:38:06.415Z,99202.16
2023-01-02T23:40:11.398Z,99194.25
2023-01-02T23:42:14.541Z,99191.72
2023-01-02T23:44:19.691Z,99204.78
2023-01-02T23:46:23.143Z,99191.72
2023-01-02T23:48:26.592Z,99190.88
2023-01-02T23:50:29.849Z,99188.53
2023-01-02T23:52:33.009Z,99198.28
2023-01-02T23:54:36.147Z,99197.44
2023-01-02T23:56:41.079Z,99194.97
2023-01-02T23:58:44.194Z,99202.81
